createdAt,value
2023-03-23T00:01:17.354Z,29.10
2023-03-23T00:05:17.470Z,29.10
2023-03-23T00:09:17.554Z,29.03
2023-03-23T00:13:17.620Z,29.05
2023-03-23T00:17:17.709Z,29.03
2023-03-23T00:21:17.776Z,29.03
2023-03-23T00:25:17.965Z,29.01
2023-03-23T00:29:18.047Z,29.02
2023-03-23T00:33:18.164Z,29.00
2023-03-23T00:37:18.196Z,29.03
2023-03-23T00:41:18.283Z,29.03
2023-03-23T00:45:18.426Z,28.93
2023-03-23T00:49:18.482Z,28.94
2023-03-23T00:53:18.674Z,28.97
2023-03-23T00:57:18.814Z,28.91
2023-03-23T01:01:18.929Z,28.90
2023-03-23T01:05:19.028Z,28.91
2023-03-23T01:09:19.196Z,28.88
2023-03-23T01:13:19.329Z,28.88
2023-03-23T01:17:19.404Z,28.84
2023-03-23T01:21:19.494Z,28.81
2023-03-23T01:25:19.538Z,28.83
2023-03-23T01:29:19.540Z,28.88
2023-03-23T01:33:19.456Z,28.85
2023-03-23T01:37:19.424Z,28.82
2023-03-23T01:41:19.422Z,28.82
2023-03-23T01:45:19.590Z,28.80
2023-03-23T01:49:19.388Z,28.78
2023-03-23T01:53:19.301Z,28.78
2023-03-23T01:57:19.258Z,28.77
2023-03-23T02:01:20.278Z,28.74
2023-03-23T02:05:19.174Z,28.72
2023-03-23T02:09:19.209Z,28.75
2023-03-23T02:13:20.149Z,28.77
2023-03-23T02:17:19.086Z,28.77
2023-03-23T02:21:19.080Z,28.69
2023-03-23T02:25:18.996Z,28.69
2023-03-23T02:29:19.126Z,28.68
2023-03-23T02:33:19.191Z,28.75
2023-03-23T02:37:19.340Z,28.68
2023-03-23T02:45:19.683Z,28.72
2023-03-23T02:49:19.888Z,28.65
2023-03-23T02:53:20.039Z,28.70
2023-03-23T02:57:20.180Z,28.63
2023-03-23T03:01:21.176Z,28.65
2023-03-23T03:05:20.089Z,28.67
2023-03-23T03:09:20.069Z,28.62
2023-03-23T03:13:20.138Z,28.68
2023-03-23T03:17:20.301Z,28.62
2023-03-23T03:21:20.501Z,28.63
2023-03-23T03:25:20.620Z,28.60
2023-03-23T03:29:20.800Z,28.61
2023-03-23T03:33:20.744Z,28.63
2023-03-23T03:37:20.725Z,28.60
2023-03-23T03:41:20.657Z,28.59
2023-03-23T03:45:20.673Z,28.59
2023-03-23T03:49:20.605Z,28.55
2023-03-23T03:53:20.561Z,28.59
2023-03-23T03:57:21.554Z,28.60
2023-03-23T04:01:20.488Z,28.63
2023-03-23T04:05:20.617Z,28.60
2023-03-23T04:09:20.717Z,28.54
2023-03-23T04:13:20.876Z,28.53
2023-03-23T04:17:21.022Z,28.63
2023-03-23T04:21:21.174Z,28.57
2023-03-23T04:25:21.384Z,28.56
2023-03-23T04:29:21.617Z,28.56
2023-03-23T04:33:22.418Z,28.54
2023-03-23T04:37:21.937Z,28.51
2023-03-23T04:41:22.174Z,28.51
2023-03-23T04:45:22.345Z,28.58
2023-03-23T04:49:22.547Z,28.57
2023-03-23T04:53:22.570Z,28.51
2023-03-23T04:57:22.478Z,28.46
2023-03-23T05:01:22.455Z,28.54
2023-03-23T05:05:22.427Z,28.44
2023-03-23T05:09:22.360Z,28.24
2023-03-23T05:13:22.314Z,28.09
2023-03-23T05:17:22.261Z,27.83
2023-03-23T05:21:22.240Z,27.67
2023-03-23T05:25:22.185Z,27.43
2023-03-23T05:29:22.186Z,27.41
2023-03-23T05:33:22.171Z,27.21
2023-03-23T05:37:22.348Z,27.19
2023-03-23T05:41:22.471Z,27.32
2023-03-23T05:45:22.654Z,27.20
2023-03-23T05:49:22.836Z,27.28
2023-03-23T05:53:23.024Z,27.22
2023-03-23T05:57:23.013Z,27.19
2023-03-23T06:01:22.948Z,27.23
2023-03-23T06:05:22.891Z,27.09
2023-03-23T06:09:22.892Z,26.92
2023-03-23T06:13:22.812Z,26.81
2023-03-23T06:17:22.814Z,26.72
2023-03-23T06:21:22.742Z,26.64
2023-03-23T06:25:22.698Z,26.61
2023-03-23T06:29:22.692Z,26.63
2023-03-23T06:33:22.686Z,27.09
2023-03-23T06:37:22.630Z,28.03
2023-03-23T06:41:22.601Z,27.30
2023-03-23T06:45:22.587Z,27.82
2023-03-23T06:49:22.606Z,28.00
2023-03-23T06:53:22.789Z,28.04
2023-03-23T06:57:22.969Z,27.99
2023-03-23T07:01:22.941Z,28.17
2023-03-23T07:05:23.076Z,28.03
2023-03-23T07:09:27.607Z,28.01
2023-03-23T07:13:24.064Z,28.10
2023-03-23T07:17:22.785Z,28.15
2023-03-23T07:21:22.798Z,28.24
2023-03-23T07:25:22.767Z,28.30
2023-03-23T07:29:22.847Z,28.35
2023-03-23T07:33:22.907Z,28.71
2023-03-23T07:37:23.144Z,29.12
2023-03-23T07:41:22.906Z,29.11
2023-03-23T07:45:23.043Z,29.12
2023-03-23T07:49:23.161Z,29.24
2023-03-23T07:53:23.079Z,29.40
2023-03-23T07:57:23.071Z,29.61
2023-03-23T08:01:23.004Z,29.51
2023-03-23T08:05:22.996Z,29.75
2023-03-23T08:09:23.109Z,29.59
2023-03-23T08:13:23.176Z,29.48
2023-03-23T08:17:22.861Z,29.57
2023-03-23T08:21:22.870Z,29.72
2023-03-23T08:25:22.792Z,29.87
2023-03-23T08:29:22.754Z,30.89
2023-03-23T08:33:23.083Z,28.29
2023-03-23T08:37:23.119Z,27.42
2023-03-23T08:41:23.610Z,28.26
2023-03-23T08:45:22.646Z,28.58
2023-03-23T08:49:22.571Z,28.73
2023-03-23T08:53:23.190Z,28.96
2023-03-23T08:57:22.961Z,29.07
2023-03-23T09:01:23.032Z,29.32
2023-03-23T09:05:23.146Z,29.40
2023-03-23T09:09:23.199Z,29.54
2023-03-23T09:13:23.298Z,29.59
2023-03-23T09:17:23.295Z,29.68
2023-03-23T09:21:23.415Z,29.80
2023-03-23T09:25:23.471Z,29.72
2023-03-23T09:29:23.558Z,29.06
2023-03-23T09:33:23.629Z,28.64
2023-03-23T09:37:23.587Z,28.31
2023-03-23T09:41:23.615Z,28.04
2023-03-23T09:45:23.720Z,28.35
2023-03-23T09:49:23.730Z,28.72
2023-03-23T09:53:24.122Z,29.00
2023-03-23T09:57:23.829Z,29.23
2023-03-23T10:01:23.871Z,29.52
2023-03-23T10:05:23.880Z,29.60
2023-03-23T10:09:23.917Z,29.80
2023-03-23T10:13:23.909Z,30.15
2023-03-23T10:17:23.923Z,30.08
2023-03-23T10:21:23.950Z,30.13
2023-03-23T10:25:24.088Z,29.91
2023-03-23T10:29:24.295Z,30.09
2023-03-23T10:33:24.274Z,29.71
2023-03-23T10:37:24.647Z,29.67
2023-03-23T10:41:26.118Z,25.99
2023-03-23T10:45:24.152Z,27.32
2023-03-23T10:49:24.110Z,27.93
2023-03-23T10:53:24.182Z,28.25
2023-03-23T10:57:24.201Z,28.39
2023-03-23T11:01:24.262Z,28.52
2023-03-23T11:05:24.960Z,28.50
2023-03-23T11:09:24.382Z,28.44
2023-03-23T11:13:24.349Z,28.83
2023-03-23T11:17:24.321Z,29.05
2023-03-23T11:21:24.308Z,29.37
2023-03-23T11:25:24.256Z,29.55
2023-03-23T11:29:24.626Z,26.78
2023-03-23T11:33:25.706Z,26.91
2023-03-23T11:37:24.168Z,25.56
2023-03-23T11:41:24.091Z,25.11
2023-03-23T11:45:24.062Z,24.83
2023-03-23T11:53:24.020Z,24.60
2023-03-23T11:57:24.044Z,24.74
2023-03-23T12:01:24.279Z,24.57
2023-03-23T12:05:24.428Z,24.77
2023-03-23T12:09:24.545Z,24.86
2023-03-23T12:13:24.691Z,24.68
2023-03-23T12:17:24.850Z,25.26
2023-03-23T12:21:25.198Z,25.33
2023-03-23T12:25:25.053Z,25.31
2023-03-23T12:29:25.099Z,25.27
2023-03-23T12:33:25.135Z,25.27
2023-03-23T12:37:25.249Z,25.24
2023-03-23T12:41:25.324Z,25.21
2023-03-23T12:45:25.393Z,25.16
2023-03-23T12:49:25.427Z,25.28
2023-03-23T12:53:25.470Z,25.45
2023-03-23T12:57:25.589Z,25.51
2023-03-23T13:01:25.642Z,25.54
2023-03-23T13:05:25.728Z,25.45
2023-03-23T13:09:25.826Z,25.47
2023-03-23T13:13:25.863Z,25.37
2023-03-23T13:17:25.874Z,25.38
2023-03-23T13:21:25.967Z,25.34
2023-03-23T13:25:25.991Z,25.40
2023-03-23T13:29:26.003Z,25.17
2023-03-23T13:33:26.049Z,24.92
2023-03-23T13:37:26.095Z,24.99
2023-03-23T13:41:26.145Z,24.79
2023-03-23T13:45:26.136Z,24.44
2023-03-23T13:49:26.161Z,24.32
2023-03-23T13:53:30.468Z,24.57
2023-03-23T13:57:26.187Z,24.53
2023-03-23T14:01:26.127Z,24.75
2023-03-23T14:05:26.109Z,24.42
2023-03-23T14:09:26.034Z,24.47
2023-03-23T14:13:26.065Z,24.20
2023-03-23T14:17:25.995Z,23.92
2023-03-23T14:21:25.932Z,23.82
2023-03-23T14:25:25.898Z,23.70
2023-03-23T14:29:26.105Z,23.72
2023-03-23T14:33:26.287Z,23.58
2023-03-23T14:37:26.436Z,23.79
2023-03-23T14:41:26.546Z,23.84
2023-03-23T14:45:26.648Z,23.77
2023-03-23T14:49:26.843Z,23.80
2023-03-23T14:53:26.992Z,23.84
2023-03-23T14:57:27.071Z,23.87
2023-03-23T15:01:27.201Z,23.81
2023-03-23T15:05:27.330Z,23.60
2023-03-23T15:09:27.496Z,23.60
2023-03-23T15:13:27.627Z,23.52
2023-03-23T15:17:27.761Z,23.52
2023-03-23T15:21:28.025Z,23.41
2023-03-23T15:25:28.147Z,23.52
2023-03-23T15:29:28.324Z,23.59
2023-03-23T15:33:28.878Z,23.68
2023-03-23T15:37:28.726Z,23.65
2023-03-23T15:41:28.871Z,23.50
2023-03-23T15:45:29.179Z,23.46
2023-03-23T15:49:29.317Z,23.48
2023-03-23T15:53:29.500Z,23.51
2023-03-23T15:57:29.677Z,23.55
2023-03-23T16:01:29.983Z,23.69
2023-03-23T16:05:30.143Z,23.74
2023-03-23T16:09:30.336Z,23.83
2023-03-23T16:13:30.295Z,23.94
2023-03-23T16:17:30.276Z,23.99
2023-03-23T16:21:30.257Z,24.04
2023-03-23T16:25:30.335Z,24.09
2023-03-23T16:33:30.210Z,24.25
